sensor_id;sensor_type;location;lat;lon;timestamp;P1;durP1;ratioP1;P2;durP2;ratioP2
52948;SDS011;38812;50.942;3.644;2022-09-02T00:00:54;12.93;;;2.38;;
52948;SDS011;38812;50.942;3.644;2022-09-02T00:03:24;12.98;;;2.70;;
52948;SDS011;38812;50.942;3.644;2022-09-02T00:05:55;10.90;;;2.25;;
52948;SDS011;38812;50.942;3.644;2022-09-02T00:08:21;9.52;;;2.40;;
52948;SDS011;38812;50.942;3.644;2022-09-02T00:10:46;7.90;;;2.80;;
52948;SDS011;38812;50.942;3.644;2022-09-02T00:13:12;13.35;;;2.47;;
52948;SDS011;38812;50.942;3.644;2022-09-02T00:15:40;4.03;;;2.60;;
52948;SDS011;38812;50.942;3.644;2022-09-02T00:18:07;6.25;;;3.00;;
52948;SDS011;38812;50.942;3.644;2022-09-02T00:20:37;4.22;;;2.85;;
52948;SDS011;38812;50.942;3.644;2022-09-02T00:23:03;4.38;;;2.17;;
52948;SDS011;38812;50.942;3.644;2022-09-02T00:25:28;4.97;;;2.72;;
52948;SDS011;38812;50.942;3.644;2022-09-02T00:27:53;7.18;;;2.83;;
52948;SDS011;38812;50.942;3.644;2022-09-02T00:30:19;7.05;;;2.85;;
52948;SDS011;38812;50.942;3.644;2022-09-02T00:32:44;10.55;;;2.88;;
52948;SDS011;38812;50.942;3.644;2022-09-02T00:35:10;8.82;;;2.45;;
52948;SDS011;38812;50.942;3.644;2022-09-02T00:37:36;11.50;;;2.58;;
52948;SDS011;38812;50.942;3.644;2022-09-02T00:40:02;7.00;;;2.38;;
52948;SDS011;38812;50.942;3.644;2022-09-02T00:42:29;4.85;;;2.50;;
52948;SDS011;38812;50.942;3.644;2022-09-02T00:44:55;8.25;;;2.55;;
52948;SDS011;38812;50.942;3.644;2022-09-02T00:47:20;13.60;;;2.55;;
52948;SDS011;38812;50.942;3.644;2022-09-02T00:49:47;5.65;;;2.67;;
52948;SDS011;38812;50.942;3.644;2022-09-02T00:52:19;11.75;;;2.80;;
52948;SDS011;38812;50.942;3.644;2022-09-02T00:54:50;4.63;;;2.95;;
52948;SDS011;38812;50.942;3.644;2022-09-02T00:57:21;9.88;;;2.97;;
52948;SDS011;38812;50.942;3.644;2022-09-02T00:59:54;7.47;;;2.55;;
52948;SDS011;38812;50.942;3.644;2022-09-02T01:02:21;12.77;;;3.00;;
52948;SDS011;38812;50.942;3.644;2022-09-02T01:04:49;11.63;;;3.22;;
52948;SDS011;38812;50.942;3.644;2022-09-02T01:07:15;4.70;;;2.80;;
52948;SDS011;38812;50.942;3.644;2022-09-02T01:09:41;5.28;;;3.28;;
52948;SDS011;38812;50.942;3.644;2022-09-02T01:12:07;8.82;;;3.58;;
52948;SDS011;38812;50.942;3.644;2022-09-02T01:14:33;4.43;;;2.83;;
52948;SDS011;38812;50.942;3.644;2022-09-02T01:17:00;5.45;;;2.90;;
52948;SDS011;38812;50.942;3.644;2022-09-02T01:24:43;7.50;;;3.05;;
52948;SDS011;38812;50.942;3.644;2022-09-02T01:27:08;7.78;;;2.92;;
52948;SDS011;38812;50.942;3.644;2022-09-02T01:29:39;7.28;;;3.05;;
52948;SDS011;38812;50.942;3.644;2022-09-02T01:32:04;5.97;;;3.33;;
52948;SDS011;38812;50.942;3.644;2022-09-02T01:34:30;10.32;;;3.25;;
52948;SDS011;38812;50.942;3.644;2022-09-02T01:36:56;12.10;;;3.38;;
52948;SDS011;38812;50.942;3.644;2022-09-02T01:39:21;5.63;;;3.28;;
52948;SDS011;38812;50.942;3.644;2022-09-02T01:41:46;6.82;;;2.92;;
52948;SDS011;38812;50.942;3.644;2022-09-02T01:44:12;9.02;;;3.10;;
52948;SDS011;38812;50.942;3.644;2022-09-02T01:46:40;10.70;;;3.47;;
52948;SDS011;38812;50.942;3.644;2022-09-02T01:49:05;8.45;;;3.75;;
52948;SDS011;38812;50.942;3.644;2022-09-02T01:51:31;15.05;;;2.78;;
52948;SDS011;38812;50.942;3.644;2022-09-02T01:53:56;7.75;;;3.05;;
52948;SDS011;38812;50.942;3.644;2022-09-02T01:56:22;8.13;;;2.92;;
52948;SDS011;38812;50.942;3.644;2022-09-02T01:58:47;7.57;;;3.92;;
52948;SDS011;38812;50.942;3.644;2022-09-02T02:01:13;5.90;;;3.30;;
52948;SDS011;38812;50.942;3.644;2022-09-02T02:03:39;9.07;;;3.67;;
52948;SDS011;38812;50.942;3.644;2022-09-02T02:06:09;9.23;;;3.65;;
52948;SDS011;38812;50.942;3.644;2022-09-02T02:08:37;9.40;;;4.03;;
52948;SDS011;38812;50.942;3.644;2022-09-02T02:11:03;10.10;;;3.50;;
52948;SDS011;38812;50.942;3.644;2022-09-02T02:13:29;8.45;;;4.15;;
52948;SDS011;38812;50.942;3.644;2022-09-02T02:15:55;10.07;;;4.05;;
52948;SDS011;38812;50.942;3.644;2022-09-02T02:18:20;12.32;;;3.75;;
52948;SDS011;38812;50.942;3.644;2022-09-02T02:20:46;5.47;;;3.40;;
52948;SDS011;38812;50.942;3.644;2022-09-02T02:23:11;7.00;;;3.78;;
52948;SDS011;38812;50.942;3.644;2022-09-02T02:25:36;9.77;;;3.92;;
52948;SDS011;38812;50.942;3.644;2022-09-02T02:28:02;8.77;;;4.05;;
52948;SDS011;38812;50.942;3.644;2022-09-02T02:30:28;5.70;;;3.55;;
52948;SDS011;38812;50.942;3.644;2022-09-02T02:32:54;8.60;;;4.10;;
52948;SDS011;38812;50.942;3.644;2022-09-02T02:35:19;10.02;;;4.10;;
52948;SDS011;38812;50.942;3.644;2022-09-02T02:37:46;7.68;;;3.90;;
52948;SDS011;38812;50.942;3.644;2022-09-02T02:40:14;7.22;;;4.00;;
52948;SDS011;38812;50.942;3.644;2022-09-02T02:42:40;11.13;;;4.43;;
52948;SDS011;38812;50.942;3.644;2022-09-02T02:45:06;6.85;;;3.67;;
52948;SDS011;38812;50.942;3.644;2022-09-02T02:47:36;12.20;;;4.50;;
52948;SDS011;38812;50.942;3.644;2022-09-02T02:50:04;8.70;;;3.97;;
52948;SDS011;38812;50.942;3.644;2022-09-02T02:52:30;12.95;;;3.67;;
52948;SDS011;38812;50.942;3.644;2022-09-02T02:54:56;17.92;;;3.88;;
52948;SDS011;38812;50.942;3.644;2022-09-02T02:57:21;12.02;;;3.92;;
52948;SDS011;38812;50.942;3.644;2022-09-02T02:59:46;9.40;;;3.88;;
52948;SDS011;38812;50.942;3.644;2022-09-02T03:02:12;9.63;;;4.00;;
52948;SDS011;38812;50.942;3.644;2022-09-02T03:04:37;7.88;;;3.70;;
52948;SDS011;38812;50.942;3.644;2022-09-02T03:07:04;13.65;;;4.20;;
52948;SDS011;38812;50.942;3.644;2022-09-02T03:09:31;9.05;;;3.88;;
52948;SDS011;38812;50.942;3.644;2022-09-02T03:11:57;12.93;;;3.63;;
52948;SDS011;38812;50.942;3.644;2022-09-02T03:14:22;7.90;;;3.80;;
52948;SDS011;38812;50.942;3.644;2022-09-02T03:16:48;8.50;;;4.32;;
52948;SDS011;38812;50.942;3.644;2022-09-02T03:19:14;6.70;;;4.22;;
52948;SDS011;38812;50.942;3.644;2022-09-02T03:21:40;11.73;;;3.85;;
52948;SDS011;38812;50.942;3.644;2022-09-02T03:24:07;8.15;;;3.88;;
52948;SDS011;38812;50.942;3.644;2022-09-02T03:26:33;9.57;;;3.67;;
52948;SDS011;38812;50.942;3.644;2022-09-02T03:28:58;9.38;;;4.13;;
52948;SDS011;38812;50.942;3.644;2022-09-02T03:31:24;5.75;;;3.50;;
52948;SDS011;38812;50.942;3.644;2022-09-02T03:33:51;7.05;;;4.18;;
52948;SDS011;38812;50.942;3.644;2022-09-02T03:36:24;9.13;;;3.33;;
52948;SDS011;38812;50.942;3.644;2022-09-02T03:38:52;14.60;;;4.13;;
52948;SDS011;38812;50.942;3.644;2022-09-02T03:41:18;17.92;;;4.53;;
52948;SDS011;38812;50.942;3.644;2022-09-02T03:43:44;14.82;;;3.90;;
52948;SDS011;38812;50.942;3.644;2022-09-02T03:46:09;9.02;;;4.22;;
52948;SDS011;38812;50.942;3.644;2022-09-02T03:48:35;8.48;;;3.75;;
52948;SDS011;38812;50.942;3.644;2022-09-02T03:51:00;11.10;;;4.03;;
52948;SDS011;38812;50.942;3.644;2022-09-02T03:53:26;6.40;;;4.13;;
52948;SDS011;38812;50.942;3.644;2022-09-02T03:55:51;6.75;;;3.75;;
52948;SDS011;38812;50.942;3.644;2022-09-02T03:58:17;9.40;;;3.60;;
52948;SDS011;38812;50.942;3.644;2022-09-02T04:00:43;5.72;;;3.70;;
52948;SDS011;38812;50.942;3.644;2022-09-02T04:03:14;5.78;;;3.47;;
52948;SDS011;38812;50.942;3.644;2022-09-02T04:05:39;7.30;;;3.75;;
52948;SDS011;38812;50.942;3.644;2022-09-02T04:08:11;5.85;;;3.75;;
52948;SDS011;38812;50.942;3.644;2022-09-02T04:10:36;9.27;;;4.10;;
52948;SDS011;38812;50.942;3.644;2022-09-02T04:13:02;17.02;;;4.30;;
52948;SDS011;38812;50.942;3.644;2022-09-02T04:15:27;11.90;;;4.43;;
52948;SDS011;38812;50.942;3.644;2022-09-02T04:17:52;9.30;;;4.70;;
52948;SDS011;38812;50.942;3.644;2022-09-02T04:20:18;8.40;;;4.63;;
52948;SDS011;38812;50.942;3.644;2022-09-02T04:22:43;11.63;;;4.68;;
52948;SDS011;38812;50.942;3.644;2022-09-02T04:25:09;20.10;;;9.98;;
52948;SDS011;38812;50.942;3.644;2022-09-02T04:27:35;11.07;;;5.68;;
52948;SDS011;38812;50.942;3.644;2022-09-02T04:30:00;8.57;;;4.85;;
52948;SDS011;38812;50.942;3.644;2022-09-02T04:32:26;12.73;;;4.93;;
52948;SDS011;38812;50.942;3.644;2022-09-02T04:34:51;6.05;;;4.53;;
52948;SDS011;38812;50.942;3.644;2022-09-02T04:37:16;7.80;;;4.47;;
52948;SDS011;38812;50.942;3.644;2022-09-02T04:39:42;10.65;;;4.43;;
52948;SDS011;38812;50.942;3.644;2022-09-02T04:42:07;8.45;;;3.50;;
52948;SDS011;38812;50.942;3.644;2022-09-02T04:44:33;9.05;;;4.25;;
52948;SDS011;38812;50.942;3.644;2022-09-02T04:46:58;8.68;;;4.57;;
52948;SDS011;38812;50.942;3.644;2022-09-02T04:49:23;6.50;;;4.32;;
52948;SDS011;38812;50.942;3.644;2022-09-02T04:51:49;12.73;;;4.00;;
52948;SDS011;38812;50.942;3.644;2022-09-02T04:54:14;8.70;;;4.32;;
52948;SDS011;38812;50.942;3.644;2022-09-02T04:56:40;7.45;;;3.83;;
52948;SDS011;38812;50.942;3.644;2022-09-02T04:59:06;8.82;;;4.75;;
52948;SDS011;38812;50.942;3.644;2022-09-02T05:01:32;8.77;;;4.22;;
52948;SDS011;38812;50.942;3.644;2022-09-02T05:03:59;9.52;;;3.97;;
52948;SDS011;38812;50.942;3.644;2022-09-02T05:06:26;7.95;;;3.88;;
52948;SDS011;38812;50.942;3.644;2022-09-02T05:08:53;8.13;;;4.10;;
52948;SDS011;38812;50.942;3.644;2022-09-02T05:11:21;12.45;;;4.07;;
52948;SDS011;38812;50.942;3.644;2022-09-02T05:13:55;6.53;;;4.13;;
52948;SDS011;38812;50.942;3.644;2022-09-02T05:16:26;8.38;;;4.32;;
52948;SDS011;38812;50.942;3.644;2022-09-02T05:18:53;7.88;;;4.72;;
52948;SDS011;38812;50.942;3.644;2022-09-02T05:21:19;11.13;;;5.10;;
52948;SDS011;38812;50.942;3.644;2022-09-02T05:23:47;11.48;;;4.30;;
52948;SDS011;38812;50.942;3.644;2022-09-02T05:26:12;11.73;;;4.45;;
52948;SDS011;38812;50.942;3.644;2022-09-02T05:28:38;7.80;;;3.67;;
52948;SDS011;38812;50.942;3.644;2022-09-02T05:31:07;12.60;;;4.63;;
52948;SDS011;38812;50.942;3.644;2022-09-02T05:33:35;16.35;;;4.50;;
52948;SDS011;38812;50.942;3.644;2022-09-02T05:36:05;8.00;;;4.63;;
52948;SDS011;38812;50.942;3.644;2022-09-02T05:38:40;7.65;;;3.85;;
52948;SDS011;38812;50.942;3.644;2022-09-02T05:41:07;6.53;;;3.70;;
52948;SDS011;38812;50.942;3.644;2022-09-02T05:43:37;6.00;;;4.05;;
52948;SDS011;38812;50.942;3.644;2022-09-02T05:46:07;7.25;;;4.15;;
52948;SDS011;38812;50.942;3.644;2022-09-02T05:48:35;16.00;;;4.95;;
52948;SDS011;38812;50.942;3.644;2022-09-02T05:51:20;8.90;;;3.90;;
52948;SDS011;38812;50.942;3.644;2022-09-02T05:53:46;9.93;;;4.13;;
52948;SDS011;38812;50.942;3.644;2022-09-02T05:56:12;12.43;;;3.97;;
52948;SDS011;38812;50.942;3.644;2022-09-02T05:58:39;11.82;;;3.67;;
52948;SDS011;38812;50.942;3.644;2022-09-02T06:01:11;8.07;;;3.60;;
52948;SDS011;38812;50.942;3.644;2022-09-02T06:03:38;5.97;;;3.42;;
52948;SDS011;38812;50.942;3.644;2022-09-02T06:06:04;6.38;;;4.32;;
52948;SDS011;38812;50.942;3.644;2022-09-02T06:08:30;9.15;;;3.97;;
52948;SDS011;38812;50.942;3.644;2022-09-02T06:10:56;9.70;;;3.63;;
52948;SDS011;38812;50.942;3.644;2022-09-02T06:13:21;6.53;;;3.45;;
52948;SDS011;38812;50.942;3.644;2022-09-02T06:15:50;10.80;;;3.35;;
52948;SDS011;38812;50.942;3.644;2022-09-02T06:18:16;11.50;;;4.28;;
52948;SDS011;38812;50.942;3.644;2022-09-02T06:20:45;6.53;;;3.28;;
52948;SDS011;38812;50.942;3.644;2022-09-02T06:23:12;5.00;;;3.83;;
52948;SDS011;38812;50.942;3.644;2022-09-02T06:25:39;15.02;;;4.30;;
52948;SDS011;38812;50.942;3.644;2022-09-02T06:28:06;11.35;;;3.90;;
52948;SDS011;38812;50.942;3.644;2022-09-02T06:30:32;20.15;;;4.47;;
52948;SDS011;38812;50.942;3.644;2022-09-02T06:32:58;11.18;;;3.50;;
52948;SDS011;38812;50.942;3.644;2022-09-02T06:35:27;9.48;;;4.18;;
52948;SDS011;38812;50.942;3.644;2022-09-02T06:37:53;10.05;;;3.80;;
52948;SDS011;38812;50.942;3.644;2022-09-02T06:40:18;5.90;;;3.55;;
52948;SDS011;38812;50.942;3.644;2022-09-02T06:42:44;16.92;;;3.55;;
52948;SDS011;38812;50.942;3.644;2022-09-02T06:45:09;9.65;;;3.90;;
52948;SDS011;38812;50.942;3.644;2022-09-02T06:47:35;8.18;;;4.40;;
52948;SDS011;38812;50.942;3.644;2022-09-02T06:50:00;13.80;;;3.95;;
52948;SDS011;38812;50.942;3.644;2022-09-02T06:52:25;8.80;;;3.60;;
52948;SDS011;38812;50.942;3.644;2022-09-02T06:54:51;15.07;;;3.40;;
52948;SDS011;38812;50.942;3.644;2022-09-02T06:57:18;8.65;;;3.58;;
52948;SDS011;38812;50.942;3.644;2022-09-02T06:59:44;15.30;;;4.30;;
52948;SDS011;38812;50.942;3.644;2022-09-02T07:02:10;9.75;;;3.80;;
52948;SDS011;38812;50.942;3.644;2022-09-02T07:04:36;7.72;;;3.75;;
52948;SDS011;38812;50.942;3.644;2022-09-02T07:07:20;5.70;;;3.28;;
52948;SDS011;38812;50.942;3.644;2022-09-02T07:09:45;10.93;;;4.40;;
52948;SDS011;38812;50.942;3.644;2022-09-02T07:12:10;6.82;;;4.32;;
52948;SDS011;38812;50.942;3.644;2022-09-02T07:14:40;7.93;;;3.78;;
52948;SDS011;38812;50.942;3.644;2022-09-02T07:17:08;11.70;;;4.10;;
52948;SDS011;38812;50.942;3.644;2022-09-02T07:19:35;11.88;;;3.95;;
52948;SDS011;38812;50.942;3.644;2022-09-02T07:22:03;8.15;;;3.45;;
52948;SDS011;38812;50.942;3.644;2022-09-02T07:24:29;24.00;;;4.10;;
52948;SDS011;38812;50.942;3.644;2022-09-02T07:26:54;16.40;;;3.78;;
52948;SDS011;38812;50.942;3.644;2022-09-02T07:29:20;24.80;;;4.95;;
52948;SDS011;38812;50.942;3.644;2022-09-02T07:31:46;25.85;;;5.15;;
52948;SDS011;38812;50.942;3.644;2022-09-02T07:34:12;16.30;;;4.10;;
52948;SDS011;38812;50.942;3.644;2022-09-02T07:36:38;8.90;;;3.72;;
52948;SDS011;38812;50.942;3.644;2022-09-02T07:39:05;9.77;;;4.05;;
52948;SDS011;38812;50.942;3.644;2022-09-02T07:41:32;6.68;;;3.15;;
52948;SDS011;38812;50.942;3.644;2022-09-02T07:43:58;5.82;;;3.13;;
52948;SDS011;38812;50.942;3.644;2022-09-02T07:46:23;8.52;;;3.20;;
52948;SDS011;38812;50.942;3.644;2022-09-02T07:48:49;9.02;;;3.40;;
52948;SDS011;38812;50.942;3.644;2022-09-02T07:51:15;10.35;;;3.50;;
52948;SDS011;38812;50.942;3.644;2022-09-02T07:53:41;7.97;;;3.40;;
52948;SDS011;38812;50.942;3.644;2022-09-02T07:56:07;5.35;;;3.30;;
52948;SDS011;38812;50.942;3.644;2022-09-02T07:58:34;6.18;;;2.78;;
52948;SDS011;38812;50.942;3.644;2022-09-02T08:01:00;3.80;;;2.67;;
52948;SDS011;38812;50.942;3.644;2022-09-02T08:03:26;5.50;;;3.28;;
52948;SDS011;38812;50.942;3.644;2022-09-02T08:05:52;15.05;;;4.05;;
52948;SDS011;38812;50.942;3.644;2022-09-02T08:08:19;7.90;;;3.33;;
52948;SDS011;38812;50.942;3.644;2022-09-02T08:10:45;8.60;;;3.58;;
52948;SDS011;38812;50.942;3.644;2022-09-02T08:13:13;4.88;;;3.42;;
52948;SDS011;38812;50.942;3.644;2022-09-02T08:15:38;5.93;;;2.88;;
52948;SDS011;38812;50.942;3.644;2022-09-02T08:18:04;13.25;;;3.70;;
52948;SDS011;38812;50.942;3.644;2022-09-02T08:20:31;6.63;;;2.92;;
52948;SDS011;38812;50.942;3.644;2022-09-02T08:22:57;13.18;;;3.50;;
52948;SDS011;38812;50.942;3.644;2022-09-02T08:25:23;4.30;;;2.72;;
52948;SDS011;38812;50.942;3.644;2022-09-02T08:27:49;8.15;;;3.17;;
52948;SDS011;38812;50.942;3.644;2022-09-02T08:30:15;6.10;;;3.53;;
52948;SDS011;38812;50.942;3.644;2022-09-02T08:32:40;9.02;;;2.70;;
52948;SDS011;38812;50.942;3.644;2022-09-02T08:35:07;9.35;;;3.70;;
52948;SDS011;38812;50.942;3.644;2022-09-02T08:37:34;6.30;;;2.95;;
52948;SDS011;38812;50.942;3.644;2022-09-02T08:40:00;12.25;;;3.20;;
52948;SDS011;38812;50.942;3.644;2022-09-02T08:42:36;7.47;;;2.88;;
52948;SDS011;38812;50.942;3.644;2022-09-02T08:47:38;8.15;;;3.05;;
52948;SDS011;38812;50.942;3.644;2022-09-02T08:50:09;7.35;;;2.58;;
52948;SDS011;38812;50.942;3.644;2022-09-02T08:52:47;4.40;;;2.75;;
52948;SDS011;38812;50.942;3.644;2022-09-02T08:55:20;8.77;;;4.30;;
52948;SDS011;38812;50.942;3.644;2022-09-02T08:57:51;7.60;;;2.47;;
52948;SDS011;38812;50.942;3.644;2022-09-02T09:00:20;11.48;;;3.90;;
52948;SDS011;38812;50.942;3.644;2022-09-02T09:21:35;9.98;;;3.00;;
52948;SDS011;38812;50.942;3.644;2022-09-02T09:24:02;4.53;;;2.35;;
52948;SDS011;38812;50.942;3.644;2022-09-02T09:26:35;5.35;;;2.70;;
52948;SDS011;38812;50.942;3.644;2022-09-02T09:29:04;10.77;;;3.30;;
52948;SDS011;38812;50.942;3.644;2022-09-02T09:31:31;5.80;;;2.70;;
52948;SDS011;38812;50.942;3.644;2022-09-02T09:34:06;5.63;;;2.88;;
52948;SDS011;38812;50.942;3.644;2022-09-02T09:41:50;4.75;;;2.55;;
52948;SDS011;38812;50.942;3.644;2022-09-02T09:47:13;3.50;;;2.60;;
52948;SDS011;38812;50.942;3.644;2022-09-02T09:50:07;6.10;;;2.38;;
52948;SDS011;38812;50.942;3.644;2022-09-02T09:52:33;7.85;;;3.03;;
52948;SDS011;38812;50.942;3.644;2022-09-02T09:55:18;11.52;;;2.50;;
52948;SDS011;38812;50.942;3.644;2022-09-02T09:57:46;15.38;;;2.50;;
52948;SDS011;38812;50.942;3.644;2022-09-02T10:00:14;6.88;;;2.38;;
52948;SDS011;38812;50.942;3.644;2022-09-02T10:02:49;4.43;;;2.65;;
52948;SDS011;38812;50.942;3.644;2022-09-02T10:07:57;4.03;;;2.55;;
52948;SDS011;38812;50.942;3.644;2022-09-02T10:10:26;4.03;;;2.45;;
52948;SDS011;38812;50.942;3.644;2022-09-02T10:12:55;9.65;;;3.13;;
52948;SDS011;38812;50.942;3.644;2022-09-02T10:15:28;5.78;;;2.30;;
52948;SDS011;38812;50.942;3.644;2022-09-02T10:25:47;3.45;;;2.13;;
52948;SDS011;38812;50.942;3.644;2022-09-02T10:28:28;3.20;;;2.03;;
52948;SDS011;38812;50.942;3.644;2022-09-02T10:45:39;4.93;;;1.92;;
52948;SDS011;38812;50.942;3.644;2022-09-02T10:48:22;2.65;;;1.85;;
52948;SDS011;38812;50.942;3.644;2022-09-02T10:51:15;2.67;;;1.90;;
52948;SDS011;38812;50.942;3.644;2022-09-02T10:54:08;4.90;;;3.08;;
52948;SDS011;38812;50.942;3.644;2022-09-02T11:05:13;4.20;;;2.17;;
52948;SDS011;38812;50.942;3.644;2022-09-02T11:07:48;3.03;;;1.83;;
52948;SDS011;38812;50.942;3.644;2022-09-02T11:16:50;5.03;;;2.10;;
52948;SDS011;38812;50.942;3.644;2022-09-02T11:24:47;2.30;;;2.00;;
52948;SDS011;38812;50.942;3.644;2022-09-02T11:27:40;3.67;;;1.88;;
52948;SDS011;38812;50.942;3.644;2022-09-02T11:30:08;1.67;;;1.58;;
52948;SDS011;38812;50.942;3.644;2022-09-02T11:35:35;3.67;;;1.70;;
52948;SDS011;38812;50.942;3.644;2022-09-02T11:43:45;2.08;;;1.48;;
52948;SDS011;38812;50.942;3.644;2022-09-02T11:46:26;2.83;;;1.63;;
52948;SDS011;38812;50.942;3.644;2022-09-02T11:52:32;6.75;;;1.83;;
52948;SDS011;38812;50.942;3.644;2022-09-02T11:55:13;7.40;;;2.17;;
52948;SDS011;38812;50.942;3.644;2022-09-02T11:57:41;4.13;;;2.13;;
52948;SDS011;38812;50.942;3.644;2022-09-02T12:07:58;7.28;;;2.05;;
52948;SDS011;38812;50.942;3.644;2022-09-02T12:10:59;3.92;;;2.00;;
52948;SDS011;38812;50.942;3.644;2022-09-02T12:18:37;6.95;;;2.35;;
52948;SDS011;38812;50.942;3.644;2022-09-02T12:27:01;3.97;;;2.55;;
52948;SDS011;38812;50.942;3.644;2022-09-02T12:31:44;11.85;;;2.33;;
52948;SDS011;38812;50.942;3.644;2022-09-02T12:47:37;4.45;;;2.60;;
52948;SDS011;38812;50.942;3.644;2022-09-02T12:50:18;4.57;;;1.98;;
52948;SDS011;38812;50.942;3.644;2022-09-02T12:52:49;3.85;;;1.90;;
52948;SDS011;38812;50.942;3.644;2022-09-02T12:55:27;5.10;;;2.08;;
52948;SDS011;38812;50.942;3.644;2022-09-02T12:58:08;5.57;;;2.15;;
52948;SDS011;38812;50.942;3.644;2022-09-02T13:08:57;6.18;;;1.92;;
52948;SDS011;38812;50.942;3.644;2022-09-02T13:17:47;4.63;;;1.67;;
52948;SDS011;38812;50.942;3.644;2022-09-02T13:28:29;6.93;;;1.92;;
52948;SDS011;38812;50.942;3.644;2022-09-02T13:33:46;5.57;;;1.95;;
52948;SDS011;38812;50.942;3.644;2022-09-02T13:36:22;2.28;;;1.75;;
52948;SDS011;38812;50.942;3.644;2022-09-02T13:38:51;3.17;;;1.60;;
52948;SDS011;38812;50.942;3.644;2022-09-02T13:41:26;12.68;;;1.83;;
52948;SDS011;38812;50.942;3.644;2022-09-02T13:44:05;5.63;;;1.77;;
52948;SDS011;38812;50.942;3.644;2022-09-02T13:46:33;14.52;;;2.08;;
52948;SDS011;38812;50.942;3.644;2022-09-02T13:49:06;4.60;;;1.98;;
52948;SDS011;38812;50.942;3.644;2022-09-02T13:51:31;5.10;;;1.85;;
52948;SDS011;38812;50.942;3.644;2022-09-02T13:53:58;6.43;;;1.88;;
52948;SDS011;38812;50.942;3.644;2022-09-02T13:56:23;4.60;;;1.80;;
52948;SDS011;38812;50.942;3.644;2022-09-02T13:58:52;4.05;;;1.98;;
52948;SDS011;38812;50.942;3.644;2022-09-02T14:01:31;1.95;;;1.33;;
52948;SDS011;38812;50.942;3.644;2022-09-02T14:04:05;6.63;;;1.77;;
52948;SDS011;38812;50.942;3.644;2022-09-02T14:06:36;6.25;;;1.63;;
52948;SDS011;38812;50.942;3.644;2022-09-02T14:09:05;6.70;;;2.72;;
52948;SDS011;38812;50.942;3.644;2022-09-02T14:11:39;3.33;;;1.92;;
52948;SDS011;38812;50.942;3.644;2022-09-02T14:14:07;11.45;;;2.30;;
52948;SDS011;38812;50.942;3.644;2022-09-02T14:16:34;2.95;;;2.00;;
52948;SDS011;38812;50.942;3.644;2022-09-02T14:19:04;14.85;;;2.40;;
52948;SDS011;38812;50.942;3.644;2022-09-02T14:21:43;3.38;;;1.80;;
52948;SDS011;38812;50.942;3.644;2022-09-02T14:24:21;3.35;;;1.95;;
52948;SDS011;38812;50.942;3.644;2022-09-02T14:26:51;3.63;;;2.00;;
52948;SDS011;38812;50.942;3.644;2022-09-02T14:29:18;2.58;;;1.73;;
52948;SDS011;38812;50.942;3.644;2022-09-02T14:31:45;3.20;;;1.77;;
52948;SDS011;38812;50.942;3.644;2022-09-02T14:34:30;2.67;;;1.95;;
52948;SDS011;38812;50.942;3.644;2022-09-02T14:36:58;3.47;;;1.77;;
52948;SDS011;38812;50.942;3.644;2022-09-02T14:39:23;2.83;;;1.90;;
52948;SDS011;38812;50.942;3.644;2022-09-02T14:41:49;9.02;;;2.53;;
52948;SDS011;38812;50.942;3.644;2022-09-02T14:44:35;3.20;;;1.85;;
52948;SDS011;38812;50.942;3.644;2022-09-02T14:47:02;10.57;;;1.95;;
52948;SDS011;38812;50.942;3.644;2022-09-02T14:49:30;3.53;;;1.95;;
52948;SDS011;38812;50.942;3.644;2022-09-02T14:52:02;9.27;;;1.63;;
52948;SDS011;38812;50.942;3.644;2022-09-02T14:54:48;3.05;;;1.45;;
52948;SDS011;38812;50.942;3.644;2022-09-02T14:57:19;4.32;;;1.75;;
52948;SDS011;38812;50.942;3.644;2022-09-02T14:59:53;6.85;;;1.88;;
52948;SDS011;38812;50.942;3.644;2022-09-02T15:04:51;9.77;;;2.40;;
52948;SDS011;38812;50.942;3.644;2022-09-02T15:07:20;7.65;;;1.60;;
52948;SDS011;38812;50.942;3.644;2022-09-02T15:09:46;4.55;;;1.67;;
52948;SDS011;38812;50.942;3.644;2022-09-02T15:12:15;13.80;;;2.85;;
52948;SDS011;38812;50.942;3.644;2022-09-02T15:14:43;3.08;;;2.35;;
52948;SDS011;38812;50.942;3.644;2022-09-02T15:17:08;7.10;;;2.42;;
52948;SDS011;38812;50.942;3.644;2022-09-02T15:19:37;13.57;;;2.70;;
52948;SDS011;38812;50.942;3.644;2022-09-02T15:22:03;12.60;;;2.70;;
52948;SDS011;38812;50.942;3.644;2022-09-02T15:24:28;7.68;;;2.70;;
52948;SDS011;38812;50.942;3.644;2022-09-02T15:26:53;10.40;;;2.95;;
52948;SDS011;38812;50.942;3.644;2022-09-02T15:29:19;7.05;;;3.03;;
52948;SDS011;38812;50.942;3.644;2022-09-02T15:31:44;4.10;;;2.20;;
52948;SDS011;38812;50.942;3.644;2022-09-02T15:34:09;7.93;;;2.42;;
52948;SDS011;38812;50.942;3.644;2022-09-02T15:36:35;4.57;;;2.50;;
52948;SDS011;38812;50.942;3.644;2022-09-02T15:39:01;4.05;;;2.42;;
52948;SDS011;38812;50.942;3.644;2022-09-02T15:41:26;3.53;;;1.98;;
52948;SDS011;38812;50.942;3.644;2022-09-02T15:43:55;7.60;;;2.10;;
52948;SDS011;38812;50.942;3.644;2022-09-02T15:46:30;2.97;;;1.50;;
52948;SDS011;38812;50.942;3.644;2022-09-02T15:48:59;7.68;;;2.15;;
52948;SDS011;38812;50.942;3.644;2022-09-02T15:51:27;9.48;;;2.67;;
52948;SDS011;38812;50.942;3.644;2022-09-02T15:53:53;8.23;;;2.17;;
52948;SDS011;38812;50.942;3.644;2022-09-02T15:56:22;9.90;;;3.00;;
52948;SDS011;38812;50.942;3.644;2022-09-02T15:58:53;3.58;;;1.98;;
52948;SDS011;38812;50.942;3.644;2022-09-02T16:01:32;5.88;;;2.50;;
52948;SDS011;38812;50.942;3.644;2022-09-02T16:03:59;2.63;;;2.42;;
52948;SDS011;38812;50.942;3.644;2022-09-02T16:06:28;7.57;;;3.35;;
52948;SDS011;38812;50.942;3.644;2022-09-02T16:08:54;7.25;;;3.38;;
52948;SDS011;38812;50.942;3.644;2022-09-02T16:11:20;3.50;;;2.42;;
52948;SDS011;38812;50.942;3.644;2022-09-02T16:13:46;7.82;;;2.25;;
52948;SDS011;38812;50.942;3.644;2022-09-02T16:16:12;7.53;;;2.28;;
52948;SDS011;38812;50.942;3.644;2022-09-02T16:18:38;5.38;;;2.03;;
52948;SDS011;38812;50.942;3.644;2022-09-02T16:21:05;3.13;;;2.15;;
52948;SDS011;38812;50.942;3.644;2022-09-02T16:23:33;8.10;;;2.30;;
52948;SDS011;38812;50.942;3.644;2022-09-02T16:26:10;3.65;;;2.35;;
52948;SDS011;38812;50.942;3.644;2022-09-02T16:29:00;4.93;;;2.50;;
52948;SDS011;38812;50.942;3.644;2022-09-02T16:31:31;4.68;;;2.55;;
52948;SDS011;38812;50.942;3.644;2022-09-02T16:33:59;7.40;;;2.50;;
52948;SDS011;38812;50.942;3.644;2022-09-02T16:36:44;3.25;;;2.10;;
52948;SDS011;38812;50.942;3.644;2022-09-02T16:39:12;7.68;;;1.98;;
52948;SDS011;38812;50.942;3.644;2022-09-02T16:41:43;3.90;;;2.25;;
52948;SDS011;38812;50.942;3.644;2022-09-02T16:44:23;4.38;;;2.63;;
52948;SDS011;38812;50.942;3.644;2022-09-02T16:46:50;6.75;;;2.45;;
52948;SDS011;38812;50.942;3.644;2022-09-02T16:49:17;10.77;;;2.15;;
52948;SDS011;38812;50.942;3.644;2022-09-02T16:51:44;5.38;;;2.42;;
52948;SDS011;38812;50.942;3.644;2022-09-02T16:54:11;11.95;;;2.72;;
52948;SDS011;38812;50.942;3.644;2022-09-02T16:56:37;9.30;;;2.40;;
52948;SDS011;38812;50.942;3.644;2022-09-02T16:59:03;10.38;;;2.38;;
52948;SDS011;38812;50.942;3.644;2022-09-02T17:01:30;5.80;;;2.17;;
52948;SDS011;38812;50.942;3.644;2022-09-02T17:03:56;7.68;;;2.15;;
52948;SDS011;38812;50.942;3.644;2022-09-02T17:06:24;9.13;;;2.70;;
52948;SDS011;38812;50.942;3.644;2022-09-02T17:08:49;4.30;;;2.38;;
52948;SDS011;38812;50.942;3.644;2022-09-02T17:13:44;5.72;;;2.30;;
52948;SDS011;38812;50.942;3.644;2022-09-02T17:16:14;5.40;;;2.42;;
52948;SDS011;38812;50.942;3.644;2022-09-02T17:18:40;7.75;;;2.95;;
52948;SDS011;38812;50.942;3.644;2022-09-02T17:21:16;4.47;;;2.38;;
52948;SDS011;38812;50.942;3.644;2022-09-02T17:23:43;9.52;;;2.50;;
52948;SDS011;38812;50.942;3.644;2022-09-02T17:26:08;3.85;;;1.98;;
52948;SDS011;38812;50.942;3.644;2022-09-02T17:28:34;3.72;;;2.20;;
52948;SDS011;38812;50.942;3.644;2022-09-02T17:30:59;7.85;;;2.35;;